sensor_id;sensor_type;location;lat;lon;timestamp;temperature;humidity
49148;DHT22;41980;45.550;12.070;2023-04-24T00:04:38;15.50;78.00
49148;DHT22;41980;45.550;12.070;2023-04-24T00:10:41;15.40;78.10
49148;DHT22;41980;45.550;12.070;2023-04-24T00:16:43;15.40;77.80
49148;DHT22;41980;45.550;12.070;2023-04-24T00:22:44;15.30;77.60
49148;DHT22;41980;45.550;12.070;2023-04-24T00:28:47;15.30;77.50
49148;DHT22;41980;45.550;12.070;2023-04-24T00:34:49;15.30;77.40
49148;DHT22;41980;45.550;12.070;2023-04-24T00:40:51;15.20;77.10
49148;DHT22;41980;45.550;12.070;2023-04-24T00:46:52;15.20;77.30
49148;DHT22;41980;45.550;12.070;2023-04-24T00:52:56;15.20;77.00
49148;DHT22;41980;45.550;12.070;2023-04-24T00:58:58;15.20;76.90
49148;DHT22;41980;45.550;12.070;2023-04-24T01:05:01;15.20;77.10
49148;DHT22;41980;45.550;12.070;2023-04-24T01:11:03;15.10;77.30
49148;DHT22;41980;45.550;12.070;2023-04-24T01:17:05;15.10;77.50
49148;DHT22;41980;45.550;12.070;2023-04-24T01:23:07;15.20;77.10
49148;DHT22;41980;45.550;12.070;2023-04-24T01:29:08;15.20;77.20
49148;DHT22;41980;45.550;12.070;2023-04-24T01:35:11;15.30;77.20
49148;DHT22;41980;45.550;12.070;2023-04-24T01:41:13;15.40;76.30
49148;DHT22;41980;45.550;12.070;2023-04-24T01:47:15;15.30;77.90
49148;DHT22;41980;45.550;12.070;2023-04-24T01:53:16;15.30;76.40
49148;DHT22;41980;45.550;12.070;2023-04-24T01:59:18;15.30;76.70
49148;DHT22;41980;45.550;12.070;2023-04-24T02:05:22;15.30;76.60
49148;DHT22;41980;45.550;12.070;2023-04-24T02:11:24;15.30;75.90
49148;DHT22;41980;45.550;12.070;2023-04-24T02:17:26;15.30;76.60
49148;DHT22;41980;45.550;12.070;2023-04-24T02:23:28;15.30;76.30
49148;DHT22;41980;45.550;12.070;2023-04-24T02:29:29;15.30;76.70
49148;DHT22;41980;45.550;12.070;2023-04-24T02:35:31;15.30;76.50
49148;DHT22;41980;45.550;12.070;2023-04-24T02:41:33;15.30;75.50
49148;DHT22;41980;45.550;12.070;2023-04-24T02:47:35;15.30;76.30
49148;DHT22;41980;45.550;12.070;2023-04-24T02:53:36;15.30;76.20
49148;DHT22;41980;45.550;12.070;2023-04-24T02:59:38;15.30;75.60
49148;DHT22;41980;45.550;12.070;2023-04-24T03:05:40;15.30;75.30
49148;DHT22;41980;45.550;12.070;2023-04-24T03:11:41;15.30;75.60
49148;DHT22;41980;45.550;12.070;2023-04-24T03:17:43;15.20;76.10
49148;DHT22;41980;45.550;12.070;2023-04-24T03:23:45;15.20;75.50
49148;DHT22;41980;45.550;12.070;2023-04-24T03:29:46;15.20;75.40
49148;DHT22;41980;45.550;12.070;2023-04-24T03:35:49;15.20;74.90
49148;DHT22;41980;45.550;12.070;2023-04-24T03:41:52;15.30;74.90
49148;DHT22;41980;45.550;12.070;2023-04-24T03:47:59;15.30;74.50
49148;DHT22;41980;45.550;12.070;2023-04-24T03:54:01;15.30;74.80
49148;DHT22;41980;45.550;12.070;2023-04-24T04:00:06;15.30;74.50
49148;DHT22;41980;45.550;12.070;2023-04-24T04:06:16;15.30;74.50
49148;DHT22;41980;45.550;12.070;2023-04-24T04:12:19;15.30;74.40
49148;DHT22;41980;45.550;12.070;2023-04-24T04:18:21;15.40;74.30
49148;DHT22;41980;45.550;12.070;2023-04-24T04:24:23;15.40;74.30
49148;DHT22;41980;45.550;12.070;2023-04-24T04:30:27;15.30;74.50
49148;DHT22;41980;45.550;12.070;2023-04-24T04:36:37;15.30;74.40
49148;DHT22;41980;45.550;12.070;2023-04-24T04:42:44;15.20;74.50
49148;DHT22;41980;45.550;12.070;2023-04-24T04:48:48;15.20;74.00
49148;DHT22;41980;45.550;12.070;2023-04-24T04:54:50;15.20;73.90
49148;DHT22;41980;45.550;12.070;2023-04-24T05:00:52;15.10;75.20
49148;DHT22;41980;45.550;12.070;2023-04-24T05:06:57;15.10;74.50
49148;DHT22;41980;45.550;12.070;2023-04-24T05:13:01;15.10;75.80
49148;DHT22;41980;45.550;12.070;2023-04-24T05:19:02;15.10;74.60
49148;DHT22;41980;45.550;12.070;2023-04-24T05:25:10;15.00;78.80
49148;DHT22;41980;45.550;12.070;2023-04-24T05:31:21;14.70;77.70
49148;DHT22;41980;45.550;12.070;2023-04-24T05:37:24;14.60;76.70
49148;DHT22;41980;45.550;12.070;2023-04-24T05:43:27;14.50;77.30
49148;DHT22;41980;45.550;12.070;2023-04-24T05:49:29;14.50;77.50
49148;DHT22;41980;45.550;12.070;2023-04-24T05:55:31;14.50;80.10
49148;DHT22;41980;45.550;12.070;2023-04-24T06:01:33;14.50;77.80
49148;DHT22;41980;45.550;12.070;2023-04-24T06:07:44;14.60;79.80
49148;DHT22;41980;45.550;12.070;2023-04-24T06:13:46;14.50;77.20
49148;DHT22;41980;45.550;12.070;2023-04-24T06:19:51;14.70;77.70
49148;DHT22;41980;45.550;12.070;2023-04-24T06:25:55;14.70;77.70
49148;DHT22;41980;45.550;12.070;2023-04-24T06:31:56;14.80;77.50
49148;DHT22;41980;45.550;12.070;2023-04-24T06:37:58;14.80;77.20
49148;DHT22;41980;45.550;12.070;2023-04-24T06:44:00;14.90;77.50
49148;DHT22;41980;45.550;12.070;2023-04-24T06:50:01;14.90;78.30
49148;DHT22;41980;45.550;12.070;2023-04-24T06:56:03;15.00;78.30
49148;DHT22;41980;45.550;12.070;2023-04-24T07:02:07;15.20;77.60
49148;DHT22;41980;45.550;12.070;2023-04-24T07:08:08;15.30;77.30
49148;DHT22;41980;45.550;12.070;2023-04-24T07:14:13;15.30;77.60
49148;DHT22;41980;45.550;12.070;2023-04-24T07:20:15;15.30;76.80
49148;DHT22;41980;45.550;12.070;2023-04-24T07:26:17;15.30;77.40
49148;DHT22;41980;45.550;12.070;2023-04-24T07:32:19;15.40;77.10
49148;DHT22;41980;45.550;12.070;2023-04-24T07:38:21;15.40;78.10
49148;DHT22;41980;45.550;12.070;2023-04-24T07:44:23;15.40;76.80
49148;DHT22;41980;45.550;12.070;2023-04-24T07:50:25;15.20;80.30
49148;DHT22;41980;45.550;12.070;2023-04-24T07:56:27;15.10;80.40
49148;DHT22;41980;45.550;12.070;2023-04-24T08:02:32;15.10;81.30
49148;DHT22;41980;45.550;12.070;2023-04-24T08:08:34;15.00;81.30
49148;DHT22;41980;45.550;12.070;2023-04-24T08:14:36;14.80;80.70
49148;DHT22;41980;45.550;12.070;2023-04-24T08:20:38;14.70;81.00
49148;DHT22;41980;45.550;12.070;2023-04-24T08:26:40;14.60;81.20
49148;DHT22;41980;45.550;12.070;2023-04-24T08:32:42;14.50;81.90
49148;DHT22;41980;45.550;12.070;2023-04-24T08:38:45;14.70;80.80
49148;DHT22;41980;45.550;12.070;2023-04-24T08:44:48;15.00;81.20
49148;DHT22;41980;45.550;12.070;2023-04-24T08:50:51;15.20;80.00
49148;DHT22;41980;45.550;12.070;2023-04-24T08:56:53;15.20;79.80
49148;DHT22;41980;45.550;12.070;2023-04-24T09:02:55;15.30;79.00
49148;DHT22;41980;45.550;12.070;2023-04-24T09:09:00;15.60;78.60
49148;DHT22;41980;45.550;12.070;2023-04-24T09:15:02;16.00;77.00
49148;DHT22;41980;45.550;12.070;2023-04-24T09:21:07;16.00;75.70
49148;DHT22;41980;45.550;12.070;2023-04-24T09:27:10;15.90;76.10
49148;DHT22;41980;45.550;12.070;2023-04-24T09:33:14;15.90;75.30
49148;DHT22;41980;45.550;12.070;2023-04-24T09:39:17;16.00;75.30
49148;DHT22;41980;45.550;12.070;2023-04-24T09:45:21;16.20;74.00
49148;DHT22;41980;45.550;12.070;2023-04-24T09:57:29;17.80;70.90
49148;DHT22;41980;45.550;12.070;2023-04-24T10:03:31;18.90;71.10
49148;DHT22;41980;45.550;12.070;2023-04-24T10:09:33;19.90;64.10
49148;DHT22;41980;45.550;12.070;2023-04-24T10:15:35;19.10;67.10
49148;DHT22;41980;45.550;12.070;2023-04-24T10:21:37;18.30;69.50
49148;DHT22;41980;45.550;12.070;2023-04-24T10:27:44;17.80;70.40
49148;DHT22;41980;45.550;12.070;2023-04-24T10:33:46;17.30;71.90
49148;DHT22;41980;45.550;12.070;2023-04-24T10:39:49;17.00;71.20
49148;DHT22;41980;45.550;12.070;2023-04-24T10:58:03;16.90;71.90
49148;DHT22;41980;45.550;12.070;2023-04-24T11:04:05;17.10;71.70
49148;DHT22;41980;45.550;12.070;2023-04-24T11:10:07;17.50;70.40
49148;DHT22;41980;45.550;12.070;2023-04-24T11:22:14;18.10;69.80
49148;DHT22;41980;45.550;12.070;2023-04-24T11:28:18;18.30;68.70
49148;DHT22;41980;45.550;12.070;2023-04-24T11:34:20;18.20;67.10
49148;DHT22;41980;45.550;12.070;2023-04-24T11:40:22;18.30;68.20
49148;DHT22;41980;45.550;12.070;2023-04-24T11:46:26;18.50;67.80
49148;DHT22;41980;45.550;12.070;2023-04-24T11:52:29;18.70;67.40
49148;DHT22;41980;45.550;12.070;2023-04-24T12:10:41;19.00;64.20
49148;DHT22;41980;45.550;12.070;2023-04-24T12:16:47;19.10;62.60
49148;DHT22;41980;45.550;12.070;2023-04-24T12:28:53;19.30;62.90
49148;DHT22;41980;45.550;12.070;2023-04-24T12:34:55;19.50;61.90
49148;DHT22;41980;45.550;12.070;2023-04-24T12:47:02;19.10;59.30
49148;DHT22;41980;45.550;12.070;2023-04-24T12:53:05;19.20;58.30
49148;DHT22;41980;45.550;12.070;2023-04-24T12:59:07;19.10;59.30
49148;DHT22;41980;45.550;12.070;2023-04-24T13:05:09;19.00;60.80
49148;DHT22;41980;45.550;12.070;2023-04-24T13:11:13;18.90;59.60
49148;DHT22;41980;45.550;12.070;2023-04-24T13:17:14;19.00;60.80
49148;DHT22;41980;45.550;12.070;2023-04-24T13:23:16;19.20;60.70
49148;DHT22;41980;45.550;12.070;2023-04-24T13:29:18;19.40;58.30
49148;DHT22;41980;45.550;12.070;2023-04-24T13:35:20;19.40;59.90
49148;DHT22;41980;45.550;12.070;2023-04-24T13:41:21;19.30;58.90
49148;DHT22;41980;45.550;12.070;2023-04-24T13:47:23;19.40;58.90
49148;DHT22;41980;45.550;12.070;2023-04-24T13:53:26;19.50;57.40
49148;DHT22;41980;45.550;12.070;2023-04-24T13:59:28;19.50;57.10
49148;DHT22;41980;45.550;12.070;2023-04-24T14:05:30;19.50;57.60
49148;DHT22;41980;45.550;12.070;2023-04-24T14:11:32;19.60;57.70
49148;DHT22;41980;45.550;12.070;2023-04-24T14:17:34;19.60;55.20
49148;DHT22;41980;45.550;12.070;2023-04-24T14:23:36;19.40;55.70
49148;DHT22;41980;45.550;12.070;2023-04-24T14:29:38;19.50;56.40
49148;DHT22;41980;45.550;12.070;2023-04-24T14:35:40;19.40;55.40
49148;DHT22;41980;45.550;12.070;2023-04-24T14:41:44;19.20;55.10
49148;DHT22;41980;45.550;12.070;2023-04-24T14:47:46;19.10;55.00
49148;DHT22;41980;45.550;12.070;2023-04-24T14:53:47;19.10;54.50
49148;DHT22;41980;45.550;12.070;2023-04-24T14:59:49;18.90;55.20
49148;DHT22;41980;45.550;12.070;2023-04-24T15:05:51;18.90;55.20
49148;DHT22;41980;45.550;12.070;2023-04-24T15:11:53;18.90;55.00
49148;DHT22;41980;45.550;12.070;2023-04-24T15:17:55;18.90;54.90
49148;DHT22;41980;45.550;12.070;2023-04-24T15:23:57;18.90;55.30
49148;DHT22;41980;45.550;12.070;2023-04-24T15:29:59;18.80;54.90
49148;DHT22;41980;45.550;12.070;2023-04-24T15:36:02;18.70;55.00
49148;DHT22;41980;45.550;12.070;2023-04-24T15:42:04;18.50;55.80
49148;DHT22;41980;45.550;12.070;2023-04-24T15:48:06;18.50;55.60
49148;DHT22;41980;45.550;12.070;2023-04-24T15:54:08;18.40;56.50
49148;DHT22;41980;45.550;12.070;2023-04-24T16:00:10;18.30;56.50
49148;DHT22;41980;45.550;12.070;2023-04-24T16:06:13;18.20;56.90
49148;DHT22;41980;45.550;12.070;2023-04-24T16:12:15;18.00;57.40
49148;DHT22;41980;45.550;12.070;2023-04-24T16:18:17;18.00;57.70
49148;DHT22;41980;45.550;12.070;2023-04-24T16:24:19;17.80;58.10
49148;DHT22;41980;45.550;12.070;2023-04-24T16:30:21;17.70;58.60
49148;DHT22;41980;45.550;12.070;2023-04-24T16:36:23;17.50;59.00
49148;DHT22;41980;45.550;12.070;2023-04-24T16:42:25;17.40;59.70
49148;DHT22;41980;45.550;12.070;2023-04-24T16:48:27;17.20;60.50
49148;DHT22;41980;45.550;12.070;2023-04-24T16:54:28;17.20;60.60
49148;DHT22;41980;45.550;12.070;2023-04-24T17:00:31;17.00;60.70
49148;DHT22;41980;45.550;12.070;2023-04-24T17:06:33;16.90;61.00
49148;DHT22;41980;45.550;12.070;2023-04-24T17:12:35;16.90;61.50
49148;DHT22;41980;45.550;12.070;2023-04-24T17:18:36;16.90;60.90
49148;DHT22;41980;45.550;12.070;2023-04-24T17:24:38;16.90;60.80
49148;DHT22;41980;45.550;12.070;2023-04-24T17:30:40;16.80;60.90
49148;DHT22;41980;45.550;12.070;2023-04-24T17:36:42;16.80;61.10
49148;DHT22;41980;45.550;12.070;2023-04-24T17:42:44;16.80;61.20
49148;DHT22;41980;45.550;12.070;2023-04-24T17:48:47;16.60;61.30
49148;DHT22;41980;45.550;12.070;2023-04-24T17:54:49;16.50;62.00
49148;DHT22;41980;45.550;12.070;2023-04-24T18:00:50;16.50;62.10
49148;DHT22;41980;45.550;12.070;2023-04-24T18:06:52;16.30;63.40
49148;DHT22;41980;45.550;12.070;2023-04-24T18:12:54;16.20;62.00
49148;DHT22;41980;45.550;12.070;2023-04-24T18:18:55;16.10;62.80
49148;DHT22;41980;45.550;12.070;2023-04-24T18:24:57;15.90;62.50
49148;DHT22;41980;45.550;12.070;2023-04-24T18:30:59;15.70;62.60
49148;DHT22;41980;45.550;12.070;2023-04-24T18:37:01;15.60;62.90
49148;DHT22;41980;45.550;12.070;2023-04-24T18:43:03;15.50;62.90
49148;DHT22;41980;45.550;12.070;2023-04-24T18:49:04;15.30;63.70
49148;DHT22;41980;45.550;12.070;2023-04-24T18:55:06;15.20;63.90
49148;DHT22;41980;45.550;12.070;2023-04-24T19:01:08;15.20;63.90
49148;DHT22;41980;45.550;12.070;2023-04-24T19:07:09;15.00;64.20
49148;DHT22;41980;45.550;12.070;2023-04-24T19:13:11;14.90;63.90
49148;DHT22;41980;45.550;12.070;2023-04-24T19:19:13;14.80;64.40
49148;DHT22;41980;45.550;12.070;2023-04-24T19:25:15;14.80;64.20
49148;DHT22;41980;45.550;12.070;2023-04-24T19:31:16;14.60;64.20
49148;DHT22;41980;45.550;12.070;2023-04-24T19:37:18;14.60;64.60
49148;DHT22;41980;45.550;12.070;2023-04-24T19:43:20;14.50;64.40
49148;DHT22;41980;45.550;12.070;2023-04-24T19:49:21;14.50;64.70
49148;DHT22;41980;45.550;12.070;2023-04-24T19:55:23;14.40;64.70
49148;DHT22;41980;45.550;12.070;2023-04-24T20:01:24;14.30;65.00
49148;DHT22;41980;45.550;12.070;2023-04-24T20:07:26;14.20;65.80
49148;DHT22;41980;45.550;12.070;2023-04-24T20:13:28;14.00;66.40
49148;DHT22;41980;45.550;12.070;2023-04-24T20:19:32;13.90;66.60
49148;DHT22;41980;45.550;12.070;2023-04-24T20:25:34;13.90;67.10
49148;DHT22;41980;45.550;12.070;2023-04-24T20:31:36;14.00;67.20
49148;DHT22;41980;45.550;12.070;2023-04-24T20:37:38;14.00;67.40
49148;DHT22;41980;45.550;12.070;2023-04-24T20:43:40;14.20;67.30
49148;DHT22;41980;45.550;12.070;2023-04-24T20:49:42;14.30;67.40
49148;DHT22;41980;45.550;12.070;2023-04-24T20:55:43;14.40;67.40
49148;DHT22;41980;45.550;12.070;2023-04-24T21:01:45;14.50;69.80
49148;DHT22;41980;45.550;12.070;2023-04-24T21:07:48;14.60;67.30
49148;DHT22;41980;45.550;12.070;2023-04-24T21:13:52;14.70;67.30
49148;DHT22;41980;45.550;12.070;2023-04-24T21:19:53;14.70;67.30
49148;DHT22;41980;45.550;12.070;2023-04-24T21:25:57;14.70;69.00
49148;DHT22;41980;45.550;12.070;2023-04-24T21:31:58;14.60;68.30
49148;DHT22;41980;45.550;12.070;2023-04-24T21:38:00;14.50;69.40
49148;DHT22;41980;45.550;12.070;2023-04-24T21:44:02;14.30;70.00
49148;DHT22;41980;45.550;12.070;2023-04-24T21:50:09;14.10;68.30
49148;DHT22;41980;45.550;12.070;2023-04-24T21:56:11;14.00;71.90
49148;DHT22;41980;45.550;12.070;2023-04-24T22:02:13;13.80;68.80
49148;DHT22;41980;45.550;12.070;2023-04-24T22:08:15;13.70;70.30
49148;DHT22;41980;45.550;12.070;2023-04-24T22:14:16;13.70;70.60
49148;DHT22;41980;45.550;12.070;2023-04-24T22:20:18;13.60;70.90
49148;DHT22;41980;45.550;12.070;2023-04-24T22:26:20;13.60;69.10
49148;DHT22;41980;45.550;12.070;2023-04-24T22:32:22;13.60;72.70
49148;DHT22;41980;45.550;12.070;2023-04-24T22:38:24;13.60;70.20
49148;DHT22;41980;45.550;12.070;2023-04-24T22:44:25;13.50;70.00
49148;DHT22;41980;45.550;12.070;2023-04-24T22:50:27;13.40;71.50
49148;DHT22;41980;45.550;12.070;2023-04-24T22:56:29;13.30;71.20
49148;DHT22;41980;45.550;12.070;2023-04-24T23:02:32;13.20;70.70
49148;DHT22;41980;45.550;12.070;2023-04-24T23:08:36;13.20;71.20
49148;DHT22;41980;45.550;12.070;2023-04-24T23:14:38;13.20;70.50
49148;DHT22;41980;45.550;12.070;2023-04-24T23:20:39;13.40;69.90
49148;DHT22;41980;45.550;12.070;2023-04-24T23:26:41;13.40;70.70
49148;DHT22;41980;45.550;12.070;2023-04-24T23:32:43;13.30;69.70
49148;DHT22;41980;45.550;12.070;2023-04-24T23:38:44;13.30;70.60
49148;DHT22;41980;45.550;12.070;2023-04-24T23:44:46;13.30;69.70
49148;DHT22;41980;45.550;12.070;2023-04-24T23:50:48;13.40;70.90
49148;DHT22;41980;45.550;12.070;2023-04-24T23:56:49;13.30;71.50
